Skip Navigation

Christman Field Latest Observations

Switch to metric unitsOther observation timesWeekly graphs

Date Time
MST
Temp
°F
RH
%
DewPt
°F
Wind
mph
Dir
°
Gust
mph
Dir
°
Press
in Hg
Solar
W/m^2
Prec
in
2019-12-08 17:45 42.7 62.2 30.7 10.8 297 19.3 303 24.535 0.0 0.00
2019-12-08 17:40 42.5 63.4 30.9 22.6 298 31.3 316 24.542 0.0 0.00
2019-12-08 17:35 43.2 64.1 31.9 25.4 311 32.6 305 24.538 0.0 0.00
2019-12-08 17:30 44.8 58.9 31.3 26.3 311 33.9 304 24.535 0.0 0.00
2019-12-08 17:25 45.3 50.3 28.0 15.6 320 24.5 310 24.522 0.0 0.00
2019-12-08 17:20 46.4 48.2 27.9 12.3 305 13.8 299 24.515 0.0 0.00
2019-12-08 17:15 47.0 45.0 26.8 10.6 269 12.7 269 24.515 0.0 0.00
2019-12-08 17:10 47.0 45.6 27.1 9.8 260 13.5 270 24.515 0.0 0.00
2019-12-08 17:05 47.3 46.0 27.6 8.0 270 9.7 267 24.518 0.0 0.00
2019-12-08 17:00 46.8 42.4 25.1 10.4 260 13.2 264 24.515 0.0 0.00
2019-12-08 16:55 45.7 49.6 27.9 9.1 270 13.9 300 24.514 0.2 0.00
2019-12-08 16:50 44.0 56.1 29.4 4.0 278 9.0 307 24.509 0.6 0.00
2019-12-08 16:45 45.2 56.2 30.6 2.5 304 5.1 308 24.509 1.3 0.00
2019-12-08 16:40 45.6 52.6 29.3 1.3 171 2.2 164 24.505 2.5 0.00
2019-12-08 16:35 46.5 54.0 30.7 1.4 199 4.2 208 24.505 4.9 0.00
2019-12-08 16:30 47.5 49.2 29.4 1.2 268 1.9 270 24.503 8.0 0.00
2019-12-08 16:25 47.4 49.6 29.5 3.5 270 7.8 237 24.503 13.6 0.00
2019-12-08 16:20 47.6 48.5 29.1 3.9 255 5.4 255 24.502 21.5 0.00
2019-12-08 16:15 47.6 49.7 29.7 4.8 192 7.2 183 24.502 26.9 0.00
2019-12-08 16:10 48.6 50.2 30.8 7.8 196 12.5 194 24.505 32.3 0.00
2019-12-08 16:05 48.7 42.6 27.0 11.3 222 13.9 231 24.505 37.1 0.00
2019-12-08 16:00 48.7 43.4 27.4 11.2 223 16.4 235 24.508 44.3 0.00
2019-12-08 15:55 48.5 43.3 27.2 10.6 224 16.8 256 24.512 55.6 0.00
2019-12-08 15:50 47.0 41.7 24.9 8.2 242 10.5 242 24.512 71.7 0.00
2019-12-08 15:45 47.7 50.0 30.0 9.7 271 12.8 316 24.511 87.2 0.00
2019-12-08 15:40 49.1 41.5 26.8 11.7 306 16.0 285 24.511 88.8 0.00
2019-12-08 15:35 46.0 41.9 24.2 10.4 256 16.7 245 24.514 90.6 0.00
2019-12-08 15:30 42.4 60.1 29.5 3.6 192 9.6 244 24.518 85.6 0.00
2019-12-08 15:25 41.4 66.0 30.9 2.0 88 4.2 91 24.519 71.8 0.00
2019-12-08 15:20 42.3 65.9 31.8 1.3 6 5.3 2 24.512 63.0 0.00